createdAt,value
2022-10-30T00:00:19.586Z,7.07
2022-10-30T00:02:51.880Z,5.38
2022-10-30T00:05:24.145Z,10.05
2022-10-30T00:07:57.109Z,9.77
2022-10-30T00:10:29.125Z,9.70
2022-10-30T00:13:01.191Z,12.15
2022-10-30T00:15:33.496Z,6.47
2022-10-30T00:18:05.915Z,10.65
2022-10-30T00:20:37.942Z,12.73
2022-10-30T00:23:09.895Z,8.48
2022-10-30T00:25:41.904Z,6.53
2022-10-30T00:28:13.953Z,13.20
2022-10-30T00:30:45.849Z,6.72
2022-10-30T00:33:17.734Z,10.35
2022-10-30T00:35:49.817Z,8.35
2022-10-30T00:38:22.284Z,10.63
2022-10-30T00:40:54.523Z,11.30
2022-10-30T00:43:33.287Z,9.43
2022-10-30T00:46:20.829Z,9.23
2022-10-30T00:49:19.651Z,8.18
2022-10-30T00:51:54.863Z,7.85
2022-10-30T00:54:26.910Z,6.25
2022-10-30T00:57:01.206Z,9.23
2022-10-30T00:59:35.815Z,9.32
2022-10-30T01:02:08.285Z,9.40
2022-10-30T01:04:42.854Z,9.23
2022-10-30T01:07:16.323Z,11.75
2022-10-30T01:09:48.334Z,8.30
2022-10-30T01:12:20.225Z,8.57
2022-10-30T01:14:56.341Z,8.80
2022-10-30T01:17:37.587Z,10.27
2022-10-30T01:23:14.674Z,4.90
2022-10-30T01:25:48.358Z,12.85
2022-10-30T01:28:38.417Z,8.70
2022-10-30T01:31:14.026Z,10.73
2022-10-30T01:33:57.280Z,9.95
2022-10-30T01:36:38.030Z,18.90
2022-10-30T01:39:34.873Z,9.48
2022-10-30T01:42:31.101Z,8.07
2022-10-30T01:45:03.938Z,8.73
2022-10-30T01:48:05.679Z,10.20
2022-10-30T01:51:18.779Z,9.13
2022-10-30T01:54:06.716Z,12.13
2022-10-30T01:57:03.959Z,12.43
2022-10-30T01:59:56.418Z,10.70
2022-10-30T02:02:28.655Z,11.38
2022-10-30T02:05:01.518Z,12.02
2022-10-30T02:07:33.970Z,8.90
2022-10-30T02:10:06.140Z,7.85
2022-10-30T02:12:38.465Z,5.45
2022-10-30T02:15:11.169Z,7.43
2022-10-30T02:17:43.216Z,9.88
2022-10-30T02:20:21.931Z,11.27
2022-10-30T02:22:58.032Z,9.27
2022-10-30T02:25:35.806Z,7.03
2022-10-30T02:28:08.210Z,13.45
2022-10-30T02:30:44.153Z,9.98
2022-10-30T02:35:53.338Z,9.02
2022-10-30T02:38:25.717Z,10.40
2022-10-30T02:40:58.861Z,12.38
2022-10-30T02:43:30.695Z,9.15
2022-10-30T02:46:02.631Z,11.30
2022-10-30T02:48:35.445Z,11.70
2022-10-30T02:51:07.337Z,6.30
2022-10-30T02:53:39.495Z,14.20
2022-10-30T02:56:15.064Z,8.38
2022-10-30T02:58:47.800Z,8.02
2022-10-30T03:01:20.227Z,7.25
2022-10-30T03:03:53.261Z,14.18
2022-10-30T03:06:25.447Z,10.35
2022-10-30T03:08:57.313Z,10.63
2022-10-30T03:11:29.209Z,9.45
2022-10-30T03:14:01.110Z,9.35
2022-10-30T03:16:33.720Z,11.10
2022-10-30T03:19:05.960Z,10.38
2022-10-30T03:21:38.743Z,9.98
2022-10-30T03:24:10.641Z,8.10
2022-10-30T03:26:42.535Z,8.88
2022-10-30T03:29:14.466Z,11.63
2022-10-30T03:31:46.619Z,13.57
2022-10-30T03:34:23.366Z,10.10
2022-10-30T03:36:55.351Z,10.88
2022-10-30T03:39:27.879Z,10.75
2022-10-30T03:41:59.858Z,7.47
2022-10-30T03:44:32.531Z,7.45
2022-10-30T03:47:04.573Z,11.95
2022-10-30T03:49:44.330Z,7.60
2022-10-30T03:52:19.437Z,10.27
2022-10-30T03:54:53.657Z,12.70
2022-10-30T03:57:26.398Z,13.68
2022-10-30T04:00:14.816Z,9.02
2022-10-30T04:02:50.831Z,7.00
2022-10-30T04:05:24.295Z,6.13
2022-10-30T04:08:01.387Z,8.98
2022-10-30T04:10:36.455Z,5.13
2022-10-30T04:13:16.243Z,10.63
2022-10-30T04:15:57.269Z,9.70
2022-10-30T04:18:30.366Z,8.07
2022-10-30T04:21:02.529Z,10.32
2022-10-30T04:23:34.677Z,7.43
2022-10-30T04:26:06.694Z,11.43
2022-10-30T04:28:41.743Z,7.43
2022-10-30T04:31:13.657Z,10.02
2022-10-30T04:33:45.753Z,10.90
2022-10-30T04:36:18.584Z,9.70
2022-10-30T04:38:51.164Z,10.10
2022-10-30T04:41:23.964Z,6.45
2022-10-30T04:44:05.056Z,12.73
2022-10-30T04:46:37.787Z,6.60
2022-10-30T04:49:13.747Z,10.02
2022-10-30T04:51:47.401Z,12.05
2022-10-30T04:54:21.075Z,9.88
2022-10-30T04:56:53.364Z,8.93
2022-10-30T04:59:25.250Z,9.73
2022-10-30T05:01:59.372Z,8.07
2022-10-30T05:04:31.928Z,12.02
2022-10-30T05:07:04.238Z,6.68
2022-10-30T05:09:36.260Z,8.93
2022-10-30T05:12:08.555Z,10.32
2022-10-30T05:14:50.649Z,9.70
2022-10-30T05:17:22.617Z,6.30
2022-10-30T05:19:56.808Z,7.68
2022-10-30T05:22:28.777Z,6.57
2022-10-30T05:25:00.654Z,16.95
2022-10-30T05:27:32.591Z,14.80
2022-10-30T05:30:04.872Z,7.68
2022-10-30T05:32:36.905Z,10.23
2022-10-30T05:35:09.202Z,9.80
2022-10-30T05:37:41.259Z,6.25
2022-10-30T05:40:13.228Z,8.35
2022-10-30T05:42:46.977Z,8.88
2022-10-30T05:45:19.223Z,10.90
2022-10-30T05:47:56.360Z,12.35
2022-10-30T05:50:29.106Z,8.40
2022-10-30T05:53:18.021Z,9.80
2022-10-30T05:55:50.544Z,4.55
2022-10-30T05:58:26.909Z,10.10
2022-10-30T06:01:05.901Z,8.48
2022-10-30T06:03:45.623Z,7.55
2022-10-30T06:06:18.204Z,9.15
2022-10-30T06:08:50.264Z,10.63
2022-10-30T06:11:39.454Z,8.10
2022-10-30T06:14:13.729Z,6.93
2022-10-30T06:16:52.889Z,9.63
2022-10-30T06:19:49.039Z,9.35
2022-10-30T06:23:03.727Z,9.80
2022-10-30T06:25:46.540Z,11.57
2022-10-30T06:28:31.698Z,7.50
2022-10-30T06:31:03.786Z,8.05
2022-10-30T06:33:36.745Z,9.65
2022-10-30T06:36:08.964Z,7.85
2022-10-30T06:38:41.917Z,9.32
2022-10-30T06:41:15.230Z,22.50
2022-10-30T06:43:59.263Z,27.92
2022-10-30T06:46:33.675Z,10.82
2022-10-30T06:49:06.445Z,8.00
2022-10-30T06:51:39.443Z,7.85
2022-10-30T06:54:11.422Z,12.00
2022-10-30T06:56:43.438Z,9.07
2022-10-30T06:59:30.338Z,11.57
2022-10-30T07:02:15.418Z,8.75
2022-10-30T07:04:55.692Z,10.10
2022-10-30T07:07:27.646Z,7.50
2022-10-30T07:09:59.649Z,7.95
2022-10-30T07:12:53.059Z,7.55
2022-10-30T07:15:44.949Z,9.85
2022-10-30T07:18:30.626Z,8.25
2022-10-30T07:21:04.826Z,9.38
2022-10-30T07:23:37.354Z,11.52
2022-10-30T07:26:22.142Z,9.20
2022-10-30T07:28:55.366Z,10.43
2022-10-30T07:32:02.232Z,9.05
2022-10-30T07:34:38.745Z,8.85
2022-10-30T07:40:15.815Z,9.02
2022-10-30T07:43:04.632Z,8.13
2022-10-30T07:45:46.724Z,6.88
2022-10-30T07:48:41.398Z,10.13
2022-10-30T07:51:25.261Z,8.48
2022-10-30T07:53:57.129Z,10.77
2022-10-30T07:56:30.320Z,11.20
2022-10-30T07:59:22.471Z,9.32
2022-10-30T08:02:10.631Z,8.43
2022-10-30T08:05:02.117Z,7.50
2022-10-30T08:08:12.302Z,6.28
2022-10-30T08:10:44.169Z,10.52
2022-10-30T08:13:16.513Z,9.68
2022-10-30T08:15:49.569Z,9.57
2022-10-30T08:18:21.614Z,9.05
2022-10-30T08:20:53.516Z,7.55
2022-10-30T08:23:25.437Z,9.82
2022-10-30T08:26:00.458Z,9.60
2022-10-30T08:28:34.002Z,8.68
2022-10-30T08:31:07.624Z,8.90
2022-10-30T08:34:02.537Z,9.75
2022-10-30T08:36:42.755Z,6.95
2022-10-30T08:39:18.356Z,8.48
2022-10-30T08:42:01.858Z,9.90
2022-10-30T08:44:39.408Z,9.77
2022-10-30T08:49:52.365Z,8.93
2022-10-30T08:52:27.371Z,8.70
2022-10-30T08:55:01.320Z,13.07
2022-10-30T08:57:38.399Z,11.55
2022-10-30T09:00:10.658Z,8.13
2022-10-30T09:03:05.660Z,9.65
2022-10-30T09:05:46.360Z,10.18
2022-10-30T09:08:38.613Z,11.88
2022-10-30T09:11:17.587Z,9.10
2022-10-30T09:13:49.662Z,9.73
2022-10-30T09:16:22.030Z,13.27
2022-10-30T09:18:55.030Z,13.00
2022-10-30T09:21:27.939Z,11.27
2022-10-30T09:24:00.034Z,12.00
2022-10-30T09:26:40.869Z,12.68
2022-10-30T09:29:31.187Z,10.98
2022-10-30T09:32:08.576Z,13.93
2022-10-30T09:34:46.161Z,11.15
2022-10-30T09:37:23.413Z,16.08
2022-10-30T09:39:59.499Z,13.85
2022-10-30T09:42:45.795Z,12.80
2022-10-30T09:45:48.732Z,13.45
2022-10-30T09:48:44.837Z,16.13
2022-10-30T09:51:32.514Z,15.93
2022-10-30T09:54:43.766Z,16.77
2022-10-30T09:57:44.824Z,16.02
2022-10-30T10:00:38.623Z,17.48
2022-10-30T10:03:30.908Z,20.55
2022-10-30T10:09:20.808Z,18.65
2022-10-30T10:12:26.366Z,23.48
2022-10-30T10:15:00.919Z,20.30
2022-10-30T10:17:37.645Z,20.42
2022-10-30T10:20:17.367Z,20.77
2022-10-30T10:22:50.500Z,24.60
2022-10-30T10:25:23.401Z,24.60
2022-10-30T10:28:12.710Z,24.52
2022-10-30T10:31:02.009Z,23.45
2022-10-30T10:33:45.830Z,22.83
2022-10-30T10:36:53.916Z,22.77
2022-10-30T10:39:56.870Z,25.00
2022-10-30T10:42:57.723Z,26.98
2022-10-30T10:48:33.492Z,24.30
2022-10-30T10:51:15.524Z,22.92
2022-10-30T10:53:51.490Z,26.80
2022-10-30T10:56:31.579Z,27.02
2022-10-30T10:59:35.513Z,24.45
2022-10-30T11:02:40.790Z,26.33
2022-10-30T11:05:30.683Z,26.75
2022-10-30T11:08:15.272Z,30.27
2022-10-30T11:10:51.967Z,29.63
2022-10-30T11:13:27.726Z,28.27
2022-10-30T11:16:24.353Z,27.02
2022-10-30T11:19:00.298Z,31.83
2022-10-30T11:21:38.292Z,27.77
2022-10-30T11:24:34.281Z,28.75
2022-10-30T11:27:24.103Z,29.88
2022-10-30T11:30:05.502Z,33.33
2022-10-30T11:32:37.426Z,28.70
2022-10-30T11:35:09.258Z,30.10
2022-10-30T11:37:43.239Z,32.78
2022-10-30T11:40:15.024Z,32.05
2022-10-30T11:43:01.964Z,30.88
2022-10-30T11:45:40.740Z,31.63
2022-10-30T11:48:24.588Z,35.30
2022-10-30T11:51:00.593Z,31.00
2022-10-30T11:53:40.259Z,33.97
2022-10-30T11:56:16.462Z,27.25
2022-10-30T11:58:55.498Z,26.85
2022-10-30T12:01:34.577Z,32.70
2022-10-30T12:04:24.553Z,37.28
2022-10-30T12:07:25.101Z,31.83
2022-10-30T12:10:01.745Z,27.83
2022-10-30T12:12:39.603Z,34.92
2022-10-30T12:15:14.515Z,27.60
2022-10-30T12:18:07.652Z,27.73
2022-10-30T12:20:39.773Z,32.20
2022-10-30T12:23:19.446Z,29.13
2022-10-30T12:25:54.104Z,34.97
2022-10-30T12:28:31.414Z,27.40
2022-10-30T12:31:17.783Z,29.42
2022-10-30T12:34:06.214Z,33.13
2022-10-30T12:36:47.712Z,28.02
2022-10-30T12:39:59.485Z,28.45
2022-10-30T12:42:35.370Z,26.42
2022-10-30T12:45:24.835Z,23.50
2022-10-30T12:47:59.567Z,31.48
2022-10-30T12:51:08.652Z,28.63
2022-10-30T12:53:52.026Z,30.42
2022-10-30T12:56:33.675Z,25.85
2022-10-30T12:59:26.879Z,23.85
2022-10-30T13:02:34.031Z,31.83
2022-10-30T13:05:18.945Z,21.92
2022-10-30T13:08:01.442Z,25.40
2022-10-30T13:10:48.267Z,23.42
2022-10-30T13:13:50.772Z,22.98
2022-10-30T13:16:27.568Z,18.33
2022-10-30T13:19:03.721Z,22.95
2022-10-30T13:21:59.140Z,17.67
2022-10-30T13:24:47.070Z,16.05
2022-10-30T13:27:18.937Z,17.13
2022-10-30T13:30:05.087Z,18.50
2022-10-30T13:32:53.664Z,17.90
2022-10-30T13:35:59.743Z,17.15
2022-10-30T13:38:47.141Z,23.02
2022-10-30T13:41:25.242Z,17.90
2022-10-30T13:44:46.442Z,17.60
2022-10-30T13:47:44.440Z,18.25
2022-10-30T13:50:28.892Z,18.35
2022-10-30T13:53:04.234Z,17.63
2022-10-30T13:55:37.439Z,12.98
2022-10-30T13:58:18.231Z,13.13
2022-10-30T14:00:56.156Z,15.88
2022-10-30T14:03:39.479Z,13.45
2022-10-30T14:06:28.034Z,18.25
2022-10-30T14:09:05.705Z,12.35
2022-10-30T14:11:37.653Z,15.77
2022-10-30T14:14:30.161Z,13.70
2022-10-30T14:17:16.534Z,13.23
2022-10-30T14:20:12.545Z,17.17
2022-10-30T14:23:09.691Z,21.25
2022-10-30T14:25:42.952Z,24.48
2022-10-30T14:28:21.524Z,27.52
2022-10-30T14:31:11.094Z,22.92
2022-10-30T14:34:28.938Z,19.38
2022-10-30T14:37:00.943Z,22.25
2022-10-30T14:39:39.914Z,24.95
2022-10-30T14:42:32.571Z,83.30
2022-10-30T14:45:10.697Z,20.70
2022-10-30T14:48:13.045Z,20.50
2022-10-30T14:51:05.668Z,17.02
2022-10-30T14:53:49.677Z,18.83
2022-10-30T14:56:49.830Z,16.05
2022-10-30T14:59:33.264Z,13.80
2022-10-30T15:02:14.128Z,13.25
2022-10-30T15:04:52.049Z,18.45
2022-10-30T15:07:37.876Z,17.52
2022-10-30T15:10:23.134Z,16.70
2022-10-30T15:13:15.189Z,15.13
2022-10-30T15:16:02.042Z,13.25
2022-10-30T15:18:34.630Z,19.27
2022-10-30T15:21:07.887Z,15.80
2022-10-30T15:23:41.900Z,15.90
2022-10-30T15:26:23.417Z,14.52
2022-10-30T15:28:55.385Z,14.93
2022-10-30T15:31:28.700Z,13.45
2022-10-30T15:34:00.757Z,14.38
2022-10-30T15:36:42.016Z,16.40
2022-10-30T15:39:16.858Z,17.42
2022-10-30T15:41:56.792Z,14.10
2022-10-30T15:44:30.493Z,25.30
2022-10-30T15:47:04.856Z,20.45
2022-10-30T15:49:40.305Z,17.33
2022-10-30T15:52:35.026Z,16.00
2022-10-30T15:55:09.740Z,18.90
2022-10-30T15:58:04.602Z,21.85
2022-10-30T16:00:38.505Z,26.50
2022-10-30T16:03:13.503Z,18.48
2022-10-30T16:05:45.632Z,19.70
2022-10-30T16:08:23.105Z,18.50
2022-10-30T16:10:56.126Z,21.70
2022-10-30T16:13:31.811Z,18.52
2022-10-30T16:16:04.513Z,16.33
2022-10-30T16:18:36.861Z,18.15
2022-10-30T16:21:10.985Z,20.85
2022-10-30T16:23:54.137Z,29.42
2022-10-30T16:26:33.237Z,31.48
2022-10-30T16:29:13.985Z,16.10
2022-10-30T16:31:50.057Z,29.75
2022-10-30T16:34:26.704Z,18.38
2022-10-30T16:36:59.235Z,19.08
2022-10-30T16:39:36.566Z,19.52
2022-10-30T16:42:23.357Z,19.45
2022-10-30T16:45:24.325Z,21.70
2022-10-30T16:48:07.478Z,19.20
2022-10-30T16:50:40.677Z,45.30
2022-10-30T16:53:24.069Z,26.05
2022-10-30T16:55:58.283Z,26.27
2022-10-30T16:58:31.867Z,18.27
2022-10-30T17:01:06.382Z,23.20
2022-10-30T17:03:41.746Z,19.20
2022-10-30T17:07:02.968Z,26.98
2022-10-30T17:09:37.651Z,22.40
2022-10-30T17:12:28.002Z,22.15
2022-10-30T17:15:17.975Z,23.35
2022-10-30T17:18:20.607Z,21.83
2022-10-30T17:21:08.445Z,23.20
2022-10-30T17:23:49.078Z,23.92
2022-10-30T17:26:21.065Z,23.75
2022-10-30T17:28:52.975Z,22.45
2022-10-30T17:31:37.004Z,19.85
2022-10-30T17:34:12.163Z,20.30
2022-10-30T17:36:45.765Z,22.08
2022-10-30T17:39:17.632Z,19.05
2022-10-30T17:41:49.838Z,22.85
2022-10-30T17:44:23.897Z,21.00
2022-10-30T17:46:55.810Z,18.85
2022-10-30T17:49:32.259Z,21.65
2022-10-30T17:52:04.810Z,22.88
2022-10-30T17:54:37.312Z,19.20
2022-10-30T17:57:13.836Z,21.13
2022-10-30T17:59:45.779Z,16.45
2022-10-30T18:02:20.733Z,18.52
2022-10-30T18:04:54.891Z,19.63
2022-10-30T18:07:26.801Z,18.45
2022-10-30T18:09:58.619Z,18.58
2022-10-30T18:12:30.515Z,16.33
2022-10-30T18:15:23.862Z,24.17
2022-10-30T18:17:56.156Z,15.55
2022-10-30T18:20:28.957Z,18.58
2022-10-30T18:23:01.387Z,16.65
2022-10-30T18:25:36.063Z,15.93
2022-10-30T18:28:07.917Z,19.83
2022-10-30T18:30:39.913Z,23.02
2022-10-30T18:33:11.954Z,18.67
2022-10-30T18:35:43.984Z,15.38
2022-10-30T18:38:16.516Z,14.55
2022-10-30T18:40:50.341Z,15.52
2022-10-30T18:43:22.236Z,18.17
2022-10-30T18:45:54.079Z,13.93
2022-10-30T18:48:25.912Z,16.83
2022-10-30T18:50:57.973Z,14.90
2022-10-30T18:53:35.004Z,13.20
2022-10-30T18:56:10.327Z,17.63
2022-10-30T18:58:42.200Z,14.48
2022-10-30T19:01:15.898Z,19.92
2022-10-30T19:03:48.502Z,18.10
2022-10-30T19:06:23.623Z,15.23
2022-10-30T19:08:55.527Z,18.75
2022-10-30T19:11:30.238Z,24.45
2022-10-30T19:14:03.532Z,14.60
2022-10-30T19:16:35.348Z,16.48
2022-10-30T19:19:07.778Z,17.25
2022-10-30T19:21:39.661Z,14.18
2022-10-30T19:24:15.021Z,19.33
2022-10-30T19:26:46.923Z,17.35
2022-10-30T19:29:18.807Z,16.73
2022-10-30T19:31:50.694Z,15.98
2022-10-30T19:34:22.532Z,14.68
2022-10-30T19:36:54.430Z,12.35
2022-10-30T19:39:26.686Z,16.02
2022-10-30T19:41:58.600Z,12.13
2022-10-30T19:44:30.474Z,13.50
2022-10-30T19:47:02.330Z,12.52
2022-10-30T19:49:34.511Z,13.13
2022-10-30T19:52:09.035Z,10.77
2022-10-30T19:54:40.915Z,12.52
2022-10-30T19:57:14.005Z,15.77
2022-10-30T19:59:45.931Z,15.75
2022-10-30T20:02:17.823Z,12.35
2022-10-30T20:04:49.746Z,20.63
2022-10-30T20:07:21.627Z,13.15
2022-10-30T20:09:53.562Z,13.30
2022-10-30T20:12:25.490Z,12.70
2022-10-30T20:14:57.368Z,10.40
2022-10-30T20:17:29.171Z,30.80
2022-10-30T20:20:01.043Z,13.38
2022-10-30T20:22:32.944Z,15.80
2022-10-30T20:25:05.170Z,13.10
2022-10-30T20:27:38.004Z,11.98
2022-10-30T20:30:14.825Z,16.13
2022-10-30T20:32:47.196Z,13.27
2022-10-30T20:35:19.875Z,14.43
2022-10-30T20:38:03.133Z,18.63
2022-10-30T20:40:34.969Z,12.57
2022-10-30T20:43:09.903Z,13.13
2022-10-30T20:45:42.275Z,15.63
2022-10-30T20:48:14.399Z,10.75
2022-10-30T20:50:50.490Z,14.75
2022-10-30T20:53:23.044Z,17.42
2022-10-30T20:55:56.198Z,15.75
2022-10-30T20:58:28.408Z,15.60
2022-10-30T21:01:00.339Z,14.75
2022-10-30T21:03:32.324Z,12.15
2022-10-30T21:06:04.260Z,12.82
2022-10-30T21:08:36.150Z,14.32
2022-10-30T21:11:08.204Z,13.45
2022-10-30T21:13:40.075Z,14.60
2022-10-30T21:16:11.930Z,12.48
2022-10-30T21:18:43.781Z,10.95
2022-10-30T21:21:21.578Z,13.20
2022-10-30T21:23:57.376Z,12.90
2022-10-30T21:26:29.292Z,12.45
2022-10-30T21:29:01.722Z,14.57
2022-10-30T21:31:33.645Z,13.63
2022-10-30T21:34:05.553Z,14.50
2022-10-30T21:36:37.463Z,15.15
2022-10-30T21:39:09.373Z,11.63
2022-10-30T21:41:41.807Z,14.43
2022-10-30T21:44:15.437Z,13.32
2022-10-30T21:46:50.165Z,12.70
2022-10-30T21:49:22.042Z,13.90
2022-10-30T21:51:54.063Z,13.73
2022-10-30T21:54:26.002Z,13.15
2022-10-30T21:56:58.099Z,13.25
2022-10-30T21:59:30.015Z,17.02
2022-10-30T22:02:01.955Z,13.02
2022-10-30T22:04:34.801Z,14.63
2022-10-30T22:07:06.789Z,15.20
2022-10-30T22:09:38.662Z,16.35
2022-10-30T22:12:10.521Z,15.82
2022-10-30T22:14:42.447Z,16.75
2022-10-30T22:17:14.374Z,19.40
2022-10-30T22:19:46.326Z,13.05
2022-10-30T22:22:18.257Z,13.82
2022-10-30T22:24:50.107Z,17.35
2022-10-30T22:27:22.030Z,15.15
2022-10-30T22:29:53.817Z,13.70
2022-10-30T22:32:26.272Z,13.60
2022-10-30T22:34:58.904Z,12.07
2022-10-30T22:37:30.866Z,15.45
2022-10-30T22:40:02.847Z,21.08
2022-10-30T22:42:35.888Z,13.57
2022-10-30T22:45:08.510Z,12.18
2022-10-30T22:47:40.465Z,13.73
2022-10-30T22:50:12.297Z,14.93
2022-10-30T22:52:44.197Z,14.30
2022-10-30T22:55:16.057Z,9.77
2022-10-30T22:57:53.017Z,11.13
2022-10-30T23:00:27.692Z,13.65
2022-10-30T23:02:59.747Z,17.33
2022-10-30T23:05:31.766Z,13.98
2022-10-30T23:08:03.869Z,11.32
2022-10-30T23:10:35.765Z,15.30
2022-10-30T23:13:07.632Z,14.07
2022-10-30T23:15:39.514Z,14.55
2022-10-30T23:18:11.565Z,12.40
2022-10-30T23:20:45.093Z,9.52
2022-10-30T23:23:17.092Z,14.48
2022-10-30T23:25:48.984Z,13.15
2022-10-30T23:28:21.004Z,13.38
2022-10-30T23:30:52.924Z,18.33
2022-10-30T23:33:24.824Z,16.17
2022-10-30T23:36:04.293Z,11.65
2022-10-30T23:38:36.097Z,16.25
2022-10-30T23:41:08.163Z,12.77
2022-10-30T23:43:40.053Z,11.82
2022-10-30T23:46:11.972Z,12.55
2022-10-30T23:48:43.856Z,13.77
2022-10-30T23:51:15.894Z,9.98
2022-10-30T23:53:47.999Z,11.02
2022-10-30T23:56:20.060Z,13.38
2022-10-30T23:58:52.813Z,12.35
